Time;durP1;ratioP1;P1;durP2;ratioP2;P2;SDS_P1;SDS_P2;PMS_P1;PMS_P2;Temp;Humidity;BMP_temperature;BMP_pressure;BME280_temperature;BME280_humidity;BME280_pressure;Samples;Min_cycle;Max_cycle;Signal;HPM_P1;HPM_P2
2024/01/18 00:01:21;;;;;;;110.10;36.13;;;1.50;99.90;;;;;;2602934;54;20839;31
2024/01/18 00:03:59;;;;;;;69.70;27.48;;;1.60;99.90;;;;;;2602896;54;20030;31
2024/01/18 00:06:34;;;;;;;50.25;22.77;;;1.60;99.90;;;;;;2621154;46;20035;31
2024/01/18 00:09:09;;;;;;;61.17;24.70;;;1.60;99.90;;;;;;2602703;54;20834;31
2024/01/18 00:11:44;;;;;;;146.88;46.10;;;1.60;99.90;;;;;;2602707;54;20076;31
2024/01/18 00:14:19;;;;;;;141.98;45.22;;;1.60;99.90;;;;;;2602755;54;20737;31
2024/01/18 00:16:52;;;;;;;185.70;56.80;;;1.60;99.90;;;;;;2602813;54;22360;31
2024/01/18 00:19:29;;;;;;;166.15;51.80;;;1.60;99.90;;;;;;2602605;54;20048;31
2024/01/18 00:22:04;;;;;;;86.77;31.77;;;1.60;99.90;;;;;;2602780;54;20914;31
2024/01/18 00:24:38;;;;;;;54.60;24.35;;;1.60;99.90;;;;;;2602881;54;20839;31
2024/01/18 00:27:13;;;;;;;50.22;22.20;;;1.70;99.90;;;;;;2602662;54;20832;31
2024/01/18 00:29:48;;;;;;;36.60;18.65;;;1.70;99.90;;;;;;2602404;54;20030;31
2024/01/18 00:32:23;;;;;;;39.10;18.45;;;1.70;99.90;;;;;;2602646;54;20242;31
2024/01/18 00:35:01;;;;;;;38.83;18.35;;;1.70;99.90;;;;;;2602582;54;20912;31
2024/01/18 00:37:36;;;;;;;37.67;19.10;;;1.70;99.90;;;;;;2620872;47;20831;31
2024/01/18 00:40:15;;;;;;;48.83;21.15;;;1.70;99.90;;;;;;2602107;54;20026;31
2024/01/18 00:42:48;;;;;;;31.83;17.35;;;1.70;99.90;;;;;;2602768;54;20792;31
2024/01/18 00:45:23;;;;;;;51.00;22.80;;;1.70;99.90;;;;;;2621174;47;20057;31
2024/01/18 00:47:58;;;;;;;55.50;24.00;;;1.80;99.90;;;;;;2602534;54;20030;31
2024/01/18 00:50:36;;;;;;;58.20;26.00;;;1.80;99.90;;;;;;2603003;54;20820;31
2024/01/18 00:53:10;;;;;;;62.53;27.75;;;1.80;99.90;;;;;;2603588;54;20026;31
2024/01/18 00:55:45;;;;;;;54.25;27.00;;;1.80;99.90;;;;;;2621745;46;20026;31
2024/01/18 00:58:20;;;;;;;58.90;27.60;;;1.80;99.90;;;;;;2603571;54;20059;31
2024/01/18 01:00:55;;;;;;;58.30;27.50;;;1.80;99.90;;;;;;2603464;54;21099;31
2024/01/18 01:03:30;;;;;;;57.45;27.75;;;1.80;99.90;;;;;;2603417;54;20887;31
2024/01/18 01:06:08;;;;;;;61.15;29.50;;;1.80;99.90;;;;;;2603469;54;20765;31
2024/01/18 01:08:42;;;;;;;47.67;24.17;;;1.80;99.90;;;;;;2603301;54;20030;31
2024/01/18 01:11:17;;;;;;;54.47;26.05;;;1.80;99.90;;;;;;2621699;46;20033;31
2024/01/18 01:13:52;;;;;;;52.67;22.60;;;1.80;99.90;;;;;;2603244;54;20053;31
2024/01/18 01:16:27;;;;;;;51.13;23.05;;;1.80;99.90;;;;;;2603176;54;20026;31
2024/01/18 01:19:04;;;;;;;57.60;25.75;;;1.80;99.90;;;;;;2603385;54;20034;31
2024/01/18 01:21:41;;;;;;;52.60;25.25;;;1.80;99.90;;;;;;2621924;46;20944;31
2024/01/18 01:24:16;;;;;;;62.20;29.02;;;1.80;99.90;;;;;;2603579;54;20038;31
2024/01/18 01:26:51;;;;;;;59.83;25.67;;;1.80;99.90;;;;;;2603411;54;20030;31
2024/01/18 01:29:26;;;;;;;71.38;29.85;;;1.80;99.90;;;;;;2603386;54;20037;31
2024/01/18 01:32:02;;;;;;;76.35;31.85;;;1.80;99.90;;;;;;2603250;54;20890;31
2024/01/18 01:34:37;;;;;;;64.80;28.83;;;1.80;99.90;;;;;;2603369;54;20874;31
2024/01/18 01:37:16;;;;;;;63.93;29.13;;;1.80;99.90;;;;;;2603268;54;20034;31
2024/01/18 01:39:50;;;;;;;58.47;25.73;;;1.80;99.90;;;;;;2603161;54;20120;31
2024/01/18 01:42:22;;;;;;;57.80;24.08;;;1.80;99.90;;;;;;2720198;39;21144;31
2024/01/18 01:44:57;;;;;;;59.05;25.40;;;1.80;99.90;;;;;;2603086;54;20753;31
2024/01/18 01:47:29;;;;;;;55.87;25.47;;;1.80;99.90;;;;;;2621562;46;22385;31
2024/01/18 01:50:04;;;;;;;73.95;28.92;;;1.80;99.90;;;;;;2603049;54;20902;31
2024/01/18 01:52:42;;;;;;;77.00;31.85;;;1.80;99.90;;;;;;2603318;54;20892;31
2024/01/18 01:55:16;;;;;;;62.05;28.70;;;1.80;99.90;;;;;;2603173;54;20034;31
2024/01/18 01:57:52;;;;;;;71.82;32.67;;;1.80;99.90;;;;;;2603314;54;20867;31
2024/01/18 02:00:26;;;;;;;76.40;32.40;;;1.70;99.90;;;;;;2603276;54;20868;31
2024/01/18 02:03:01;;;;;;;79.38;33.17;;;1.70;99.90;;;;;;2603214;54;19946;31
2024/01/18 02:05:36;;;;;;;71.20;29.40;;;1.70;99.90;;;;;;2603369;54;20034;31
2024/01/18 02:08:14;;;;;;;67.65;28.85;;;1.70;99.90;;;;;;2621548;46;20030;31
2024/01/18 02:10:48;;;;;;;67.68;29.02;;;1.70;99.90;;;;;;2603232;54;20080;31
2024/01/18 02:13:24;;;;;;;53.50;27.55;;;1.60;99.90;;;;;;2621697;46;20030;31
2024/01/18 02:15:58;;;;;;;49.55;25.45;;;1.70;99.90;;;;;;2603091;54;20913;31
2024/01/18 02:18:35;;;;;;;48.03;22.73;;;1.60;99.90;;;;;;2603048;54;20046;31
2024/01/18 02:21:09;;;;;;;41.40;21.45;;;1.60;99.90;;;;;;2621400;46;21128;31
2024/01/18 02:23:47;;;;;;;49.73;21.50;;;1.70;99.90;;;;;;2603106;54;20952;31
2024/01/18 02:26:25;;;;;;;39.80;18.65;;;1.60;99.90;;;;;;2603195;54;21183;31
2024/01/18 02:28:59;;;;;;;42.23;19.43;;;1.70;99.90;;;;;;2621163;46;20034;31
2024/01/18 02:31:34;;;;;;;37.53;17.57;;;1.70;99.90;;;;;;2603098;54;20903;31
2024/01/18 02:34:11;;;;;;;41.42;18.13;;;1.70;99.90;;;;;;2603187;54;21181;31
2024/01/18 02:36:45;;;;;;;35.97;17.83;;;1.70;99.90;;;;;;2603104;54;20042;31
2024/01/18 02:39:20;;;;;;;33.83;18.27;;;1.80;99.90;;;;;;2602877;54;20026;31
2024/01/18 02:41:55;;;;;;;32.33;17.50;;;1.80;99.90;;;;;;2621472;46;22353;31
2024/01/18 02:44:30;;;;;;;38.90;18.55;;;1.80;99.90;;;;;;2621249;46;20835;31
2024/01/18 02:47:05;;;;;;;41.60;19.35;;;1.80;99.90;;;;;;2602966;54;20026;31
2024/01/18 02:49:40;;;;;;;32.80;17.90;;;1.70;99.90;;;;;;2621548;46;20086;31
2024/01/18 02:52:15;;;;;;;36.47;19.60;;;1.70;99.90;;;;;;2602851;54;20101;31
2024/01/18 02:54:50;;;;;;;39.33;18.88;;;1.70;99.90;;;;;;2602834;54;20026;31
2024/01/18 02:57:28;;;;;;;36.75;19.05;;;1.70;99.90;;;;;;2602947;54;20022;31
2024/01/18 03:00:03;;;;;;;39.53;18.77;;;1.70;99.90;;;;;;2621376;46;20109;31
2024/01/18 03:02:36;;;;;;;38.55;19.80;;;1.70;99.90;;;;;;2621382;46;22347;31
2024/01/18 03:05:12;;;;;;;40.85;19.58;;;1.70;99.90;;;;;;2603053;54;20030;31
2024/01/18 03:07:46;;;;;;;37.80;19.75;;;1.70;99.90;;;;;;2603190;54;20040;31
2024/01/18 03:10:21;;;;;;;44.10;21.25;;;1.70;99.90;;;;;;2602894;54;20887;31
2024/01/18 03:12:59;;;;;;;40.55;20.00;;;1.70;99.90;;;;;;2602892;54;20887;31
2024/01/18 03:15:33;;;;;;;40.50;20.33;;;1.70;99.90;;;;;;2621125;46;20030;31
2024/01/18 03:18:08;;;;;;;41.60;20.35;;;1.70;99.90;;;;;;2621481;46;20037;31
2024/01/18 03:20:43;;;;;;;37.67;20.42;;;1.70;99.90;;;;;;2602881;54;20923;31
2024/01/18 03:23:19;;;;;;;40.90;19.70;;;1.70;99.90;;;;;;2621609;46;20049;31
2024/01/18 03:25:53;;;;;;;33.83;19.67;;;1.70;99.90;;;;;;2621221;46;20026;31
2024/01/18 03:28:31;;;;;;;36.60;19.25;;;1.70;99.90;;;;;;2603035;54;20054;31
2024/01/18 03:31:05;;;;;;;42.13;21.17;;;1.70;99.90;;;;;;2602623;54;20031;31
2024/01/18 03:33:40;;;;;;;39.75;19.95;;;1.70;99.90;;;;;;2602912;54;20026;31
2024/01/18 03:36:15;;;;;;;36.08;18.45;;;1.70;99.90;;;;;;2602714;54;20875;31
2024/01/18 03:38:50;;;;;;;34.13;17.75;;;1.70;99.90;;;;;;2602969;54;20879;31
2024/01/18 03:41:25;;;;;;;31.15;16.08;;;1.60;99.90;;;;;;2621242;46;20033;31
2024/01/18 03:44:03;;;;;;;25.55;14.30;;;1.60;99.90;;;;;;2621682;46;20072;31
2024/01/18 03:46:37;;;;;;;29.60;14.10;;;1.60;99.90;;;;;;2621399;46;20027;31
2024/01/18 03:49:12;;;;;;;29.43;14.37;;;1.60;99.90;;;;;;2602850;54;20022;31
2024/01/18 03:51:47;;;;;;;27.48;13.80;;;1.60;99.90;;;;;;2621445;46;20242;31
2024/01/18 03:54:23;;;;;;;25.60;12.23;;;1.50;99.90;;;;;;2602785;54;20034;31
2024/01/18 03:56:57;;;;;;;27.75;13.40;;;1.50;99.90;;;;;;2602823;54;20892;31
2024/01/18 03:59:35;;;;;;;28.15;14.00;;;1.50;99.90;;;;;;2602776;54;20030;31
2024/01/18 04:02:09;;;;;;;26.25;12.70;;;1.50;99.90;;;;;;2602799;54;20049;31
2024/01/18 04:04:44;;;;;;;25.63;12.38;;;1.50;99.90;;;;;;2602918;54;20026;31
2024/01/18 04:07:19;;;;;;;24.30;12.73;;;1.50;99.90;;;;;;2602724;54;20914;31
2024/01/18 04:09:54;;;;;;;24.80;13.05;;;1.40;99.90;;;;;;2602884;54;20977;31
2024/01/18 04:12:29;;;;;;;30.05;13.45;;;1.40;99.90;;;;;;2602774;54;20023;31
2024/01/18 04:15:08;;;;;;;25.02;13.45;;;1.40;99.90;;;;;;2602896;54;20033;31
2024/01/18 04:17:42;;;;;;;30.23;14.00;;;1.40;99.90;;;;;;2602897;54;20026;31
2024/01/18 04:20:21;;;;;;;26.17;14.27;;;1.40;99.90;;;;;;2602780;54;20034;31
2024/01/18 04:22:56;;;;;;;25.73;13.23;;;1.40;99.90;;;;;;2602574;54;20265;31
2024/01/18 04:25:31;;;;;;;28.40;13.20;;;1.40;99.90;;;;;;2603217;54;20049;31
2024/01/18 04:28:06;;;;;;;27.60;14.00;;;1.30;99.90;;;;;;2621887;46;20113;31
2024/01/18 04:30:44;;;;;;;26.52;14.20;;;1.30;99.90;;;;;;2603662;54;20053;31
2024/01/18 04:33:19;;;;;;;27.00;13.38;;;1.30;99.90;;;;;;2603470;54;20862;31
2024/01/18 04:35:54;;;;;;;29.80;13.50;;;1.20;99.90;;;;;;2622204;46;20030;31
2024/01/18 04:38:29;;;;;;;29.70;14.40;;;1.20;99.90;;;;;;2603338;54;20057;31
2024/01/18 04:41:05;;;;;;;27.63;13.82;;;1.20;99.90;;;;;;2603599;54;20027;31
2024/01/18 04:43:39;;;;;;;31.35;15.80;;;1.20;99.90;;;;;;2603431;54;20133;31
2024/01/18 04:46:17;;;;;;;25.03;13.83;;;1.20;99.90;;;;;;2603593;54;20891;31
2024/01/18 04:48:51;;;;;;;29.08;14.10;;;1.10;99.90;;;;;;2603389;54;20862;31
2024/01/18 04:51:24;;;;;;;31.15;15.90;;;1.10;99.90;;;;;;2621770;46;22330;31
2024/01/18 04:53:59;;;;;;;28.98;15.00;;;1.10;99.90;;;;;;2603314;54;20035;31
2024/01/18 04:56:35;;;;;;;28.90;15.37;;;1.10;99.90;;;;;;2622141;46;20872;31
2024/01/18 04:59:09;;;;;;;33.15;16.50;;;1.10;99.90;;;;;;2603637;54;20250;31
2024/01/18 05:01:47;;;;;;;29.73;15.40;;;1.10;99.90;;;;;;2603302;54;20033;31
2024/01/18 05:04:22;;;;;;;37.63;17.05;;;1.10;99.90;;;;;;2621745;46;20037;31
2024/01/18 05:06:57;;;;;;;30.85;14.82;;;1.10;99.90;;;;;;2603435;54;20034;31
2024/01/18 05:09:32;;;;;;;30.83;15.57;;;1.00;99.90;;;;;;2603490;54;20030;31
2024/01/18 05:12:08;;;;;;;33.57;15.77;;;1.00;99.90;;;;;;2603237;54;20030;31
2024/01/18 05:14:46;;;;;;;29.48;14.90;;;1.00;99.90;;;;;;2621886;46;20310;31
2024/01/18 05:17:30;;;;;;;29.08;15.02;;;1.00;99.90;;;;;;2603491;54;20871;31
2024/01/18 05:20:05;;;;;;;33.05;16.60;;;1.00;99.90;;;;;;2603297;54;20038;31
2024/01/18 05:22:39;;;;;;;34.45;16.30;;;1.00;99.90;;;;;;2603365;54;20894;31
2024/01/18 05:25:14;;;;;;;34.70;15.73;;;1.00;99.90;;;;;;2603312;54;20026;31
2024/01/18 05:27:49;;;;;;;33.45;18.05;;;1.00;99.90;;;;;;2603449;54;20842;31
2024/01/18 05:30:24;;;;;;;34.20;17.20;;;1.00;99.90;;;;;;2603296;54;20034;31
2024/01/18 05:33:02;;;;;;;34.03;17.35;;;1.00;99.90;;;;;;2622093;46;20045;31
2024/01/18 05:35:36;;;;;;;35.47;18.27;;;1.00;99.90;;;;;;2603360;54;20891;31
2024/01/18 05:38:11;;;;;;;36.65;18.70;;;1.00;99.90;;;;;;2603365;54;20855;31
2024/01/18 05:40:46;;;;;;;36.33;18.93;;;1.00;99.90;;;;;;2603438;54;20036;31
2024/01/18 05:43:21;;;;;;;30.67;16.83;;;0.90;99.90;;;;;;2621571;46;21109;31
2024/01/18 05:45:56;;;;;;;30.23;16.63;;;0.90;99.90;;;;;;2621793;46;21108;31
2024/01/18 05:48:37;;;;;;;35.65;17.25;;;0.90;99.90;;;;;;2621612;46;20033;31
2024/01/18 05:51:11;;;;;;;34.53;18.80;;;0.90;99.90;;;;;;2603211;54;20109;31
2024/01/18 05:53:46;;;;;;;34.80;18.50;;;0.90;99.90;;;;;;2603123;54;20926;31
2024/01/18 05:56:21;;;;;;;39.08;19.25;;;0.90;99.90;;;;;;2621518;46;20898;31
2024/01/18 05:58:56;;;;;;;37.50;18.75;;;0.90;99.90;;;;;;2603164;54;20729;31
2024/01/18 06:01:31;;;;;;;39.55;18.52;;;0.80;99.90;;;;;;2621913;46;20026;31
2024/01/18 06:04:09;;;;;;;48.60;21.15;;;0.80;99.90;;;;;;2603253;54;20913;31
2024/01/18 06:06:43;;;;;;;45.63;19.95;;;0.80;99.90;;;;;;2603234;54;20917;31
2024/01/18 06:09:18;;;;;;;43.88;19.30;;;0.80;99.90;;;;;;2621839;46;20037;31
2024/01/18 06:11:54;;;;;;;45.28;20.92;;;0.80;99.90;;;;;;2603296;54;20884;31
2024/01/18 06:14:28;;;;;;;40.85;20.85;;;0.80;99.90;;;;;;2603334;54;20038;31
2024/01/18 06:17:03;;;;;;;43.75;20.50;;;0.70;99.90;;;;;;2602998;54;20100;31
2024/01/18 06:19:41;;;;;;;43.78;20.45;;;0.80;99.90;;;;;;2603035;54;20075;31
2024/01/18 06:22:16;;;;;;;46.83;21.10;;;0.70;99.90;;;;;;2603320;54;20026;31
2024/01/18 06:24:51;;;;;;;48.28;21.38;;;0.70;99.90;;;;;;2603034;54;20034;31
2024/01/18 06:27:25;;;;;;;52.50;22.05;;;0.70;99.90;;;;;;2621493;46;22323;31
2024/01/18 06:29:59;;;;;;;47.75;20.45;;;0.70;99.90;;;;;;2603215;54;20037;31
2024/01/18 06:32:34;;;;;;;41.47;20.43;;;0.70;99.90;;;;;;2602995;54;20049;31
2024/01/18 06:35:12;;;;;;;46.10;20.60;;;0.70;99.90;;;;;;2603329;54;20050;31
2024/01/18 06:37:46;;;;;;;49.45;22.45;;;0.70;99.90;;;;;;2602949;54;20955;31
2024/01/18 06:40:21;;;;;;;45.90;20.88;;;0.60;99.90;;;;;;2602933;54;20049;31
2024/01/18 06:42:56;;;;;;;48.42;22.45;;;0.60;99.90;;;;;;2603004;54;20031;31
2024/01/18 06:45:31;;;;;;;58.45;24.10;;;0.60;99.90;;;;;;2602953;54;20995;31
2024/01/18 06:48:07;;;;;;;56.60;24.30;;;0.70;99.90;;;;;;2602714;54;20849;31
2024/01/18 06:50:44;;;;;;;53.47;23.80;;;0.70;99.90;;;;;;2603013;54;20928;31
2024/01/18 06:53:18;;;;;;;51.55;22.23;;;0.60;99.90;;;;;;2603167;54;20256;31
2024/01/18 06:55:53;;;;;;;58.33;25.05;;;0.60;99.90;;;;;;2603181;54;20034;31
2024/01/18 06:58:28;;;;;;;51.00;22.75;;;0.60;99.90;;;;;;2602821;54;20058;31
2024/01/18 07:01:03;;;;;;;50.63;22.07;;;0.60;99.90;;;;;;2602986;54;20888;31
2024/01/18 07:03:40;;;;;;;53.47;23.20;;;0.60;99.90;;;;;;2621528;46;20234;31
2024/01/18 07:06:18;;;;;;;51.73;23.13;;;0.60;99.90;;;;;;2602881;54;20982;31
2024/01/18 07:08:52;;;;;;;49.40;20.67;;;0.50;99.90;;;;;;2602930;54;20954;31
2024/01/18 07:11:27;;;;;;;50.80;22.50;;;0.50;99.90;;;;;;2621212;46;21012;31
2024/01/18 07:14:02;;;;;;;54.75;22.50;;;0.50;99.90;;;;;;2603342;46;20243;31
2024/01/18 07:16:37;;;;;;;52.97;23.13;;;0.50;99.90;;;;;;2603005;54;20027;31
2024/01/18 07:19:12;;;;;;;45.72;20.27;;;0.50;99.90;;;;;;2621355;46;20030;31
2024/01/18 07:21:50;;;;;;;53.00;21.60;;;0.50;99.90;;;;;;2602943;54;20925;31
2024/01/18 07:24:27;;;;;;;47.65;23.10;;;0.50;99.90;;;;;;2603045;54;20743;31
2024/01/18 07:27:01;;;;;;;50.17;23.63;;;0.50;99.90;;;;;;2603070;54;20958;31
2024/01/18 07:29:36;;;;;;;48.97;21.98;;;0.50;99.90;;;;;;2602786;54;20925;31
2024/01/18 07:32:11;;;;;;;50.50;22.15;;;0.60;99.90;;;;;;2602930;54;20042;31
2024/01/18 07:34:46;;;;;;;56.90;23.00;;;0.60;99.90;;;;;;2602759;54;20030;31
2024/01/18 07:37:24;;;;;;;56.55;24.08;;;0.60;99.90;;;;;;2621128;46;20774;31
2024/01/18 07:39:58;;;;;;;55.35;22.58;;;0.60;99.90;;;;;;2602777;54;20812;31
2024/01/18 07:42:33;;;;;;;51.25;22.85;;;0.60;99.90;;;;;;2603079;54;20092;31
2024/01/18 07:45:14;;;;;;;48.05;22.88;;;0.60;99.90;;;;;;2602821;54;20030;31
2024/01/18 07:47:49;;;;;;;56.35;23.02;;;0.60;99.90;;;;;;2621497;46;20112;31
2024/01/18 07:50:24;;;;;;;46.05;23.52;;;0.60;99.90;;;;;;2621483;46;20038;31
2024/01/18 07:53:16;;;;;;;57.37;23.93;;;0.60;99.90;;;;;;2602717;54;20858;31
2024/01/18 07:55:50;;;;;;;54.38;25.50;;;0.70;99.90;;;;;;2602886;54;20250;31
2024/01/18 07:58:25;;;;;;;48.33;23.63;;;0.70;99.90;;;;;;2602824;54;20104;31
2024/01/18 08:00:57;;;;;;;51.80;24.40;;;0.70;99.90;;;;;;2621231;46;22574;31
2024/01/18 08:03:32;;;;;;;49.15;23.70;;;0.70;99.90;;;;;;2602671;54;20030;31
2024/01/18 08:06:08;;;;;;;50.90;24.15;;;0.60;99.90;;;;;;2602957;54;20138;31
2024/01/18 08:08:46;;;;;;;57.40;24.80;;;0.70;99.90;;;;;;2603032;54;20738;31
2024/01/18 08:11:22;;;;;;;47.67;22.13;;;0.70;99.90;;;;;;2621208;46;20030;31
2024/01/18 08:13:58;;;;;;;47.87;23.03;;;0.60;99.90;;;;;;2602758;54;20930;31
2024/01/18 08:16:33;;;;;;;55.50;23.80;;;0.60;99.90;;;;;;2621015;46;20242;31
2024/01/18 08:19:08;;;;;;;48.75;21.75;;;0.60;99.90;;;;;;2621131;46;20050;31
2024/01/18 08:21:46;;;;;;;45.05;21.08;;;0.60;99.90;;;;;;2602794;54;20888;31
2024/01/18 08:24:24;;;;;;;46.67;21.98;;;0.70;99.90;;;;;;2621327;46;20086;31
2024/01/18 08:26:58;;;;;;;47.50;21.65;;;0.60;99.90;;;;;;2602065;54;20026;31
2024/01/18 08:29:33;;;;;;;47.75;22.17;;;0.70;99.90;;;;;;2602675;54;20879;31
2024/01/18 08:32:09;;;;;;;47.43;21.83;;;0.70;99.90;;;;;;2602812;54;20870;31
2024/01/18 08:34:43;;;;;;;49.38;22.20;;;0.70;99.90;;;;;;2620995;47;20255;31
2024/01/18 08:37:19;;;;;;;46.70;21.60;;;0.70;99.90;;;;;;2602454;54;20072;31
2024/01/18 08:39:57;;;;;;;44.85;20.60;;;0.70;99.90;;;;;;2621039;47;20778;31
2024/01/18 08:42:31;;;;;;;50.35;22.45;;;0.70;99.90;;;;;;2621099;47;20114;31
2024/01/18 08:45:07;;;;;;;44.65;20.83;;;0.70;99.90;;;;;;2602587;54;20853;31
2024/01/18 08:47:42;;;;;;;46.38;24.02;;;0.70;99.90;;;;;;2602740;54;20906;31
2024/01/18 08:50:17;;;;;;;49.30;22.08;;;0.70;99.90;;;;;;2602591;54;20030;31
2024/01/18 08:52:52;;;;;;;49.97;22.53;;;0.70;99.90;;;;;;2602583;54;20033;31
2024/01/18 08:55:29;;;;;;;44.05;20.75;;;0.80;99.90;;;;;;2602754;54;20030;31
2024/01/18 08:58:04;;;;;;;39.58;20.50;;;0.80;99.90;;;;;;2621039;47;20028;31
2024/01/18 09:00:40;;;;;;;44.20;21.20;;;0.70;99.90;;;;;;2602559;54;20082;31
2024/01/18 09:03:14;;;;;;;41.65;19.67;;;0.70;99.90;;;;;;2602708;54;20038;31
2024/01/18 09:05:53;;;;;;;37.40;19.02;;;0.70;99.90;;;;;;2602366;54;20085;31
2024/01/18 09:08:28;;;;;;;37.37;18.87;;;0.70;99.90;;;;;;2602206;54;20089;31
2024/01/18 09:11:06;;;;;;;39.05;20.55;;;0.80;99.90;;;;;;2602879;54;20263;31
2024/01/18 09:13:41;;;;;;;43.25;19.90;;;0.70;99.90;;;;;;2603505;54;20034;31
2024/01/18 09:16:19;;;;;;;40.65;20.52;;;0.70;99.90;;;;;;2621516;46;20034;31
2024/01/18 09:18:51;;;;;;;42.55;20.95;;;0.70;99.90;;;;;;2621736;46;22323;31
2024/01/18 09:21:44;;;;;;;44.53;21.35;;;0.80;99.90;;;;;;2603425;54;20065;31
2024/01/18 09:24:19;;;;;;;39.35;20.25;;;0.80;99.90;;;;;;2603283;54;20038;31
2024/01/18 09:26:57;;;;;;;42.95;22.15;;;0.80;99.90;;;;;;2603457;54;20824;31
2024/01/18 09:29:32;;;;;;;46.40;20.85;;;0.80;99.90;;;;;;2622291;46;20789;31
2024/01/18 09:32:08;;;;;;;41.15;22.42;;;0.80;99.90;;;;;;2603485;54;20842;31
2024/01/18 09:34:42;;;;;;;44.67;21.92;;;0.80;99.90;;;;;;2603435;54;20026;31
2024/01/18 09:37:17;;;;;;;45.10;22.00;;;0.80;99.90;;;;;;2603469;54;20875;31
2024/01/18 09:39:52;;;;;;;44.10;22.77;;;0.80;99.90;;;;;;2603413;54;20022;31
2024/01/18 09:42:33;;;;;;;47.53;22.58;;;0.80;99.90;;;;;;2603251;54;20260;31
2024/01/18 09:45:11;;;;;;;45.03;22.45;;;0.80;99.90;;;;;;2603205;54;20037;31
2024/01/18 09:47:45;;;;;;;44.45;22.73;;;0.80;99.90;;;;;;2603260;54;20975;31
2024/01/18 09:50:20;;;;;;;43.13;21.27;;;0.80;99.90;;;;;;2621848;46;20027;31
2024/01/18 09:52:55;;;;;;;40.58;20.17;;;0.80;99.90;;;;;;2621721;46;20030;31
2024/01/18 09:55:30;;;;;;;46.60;21.77;;;0.80;99.90;;;;;;2603359;54;20890;31
2024/01/18 09:58:11;;;;;;;40.73;21.27;;;0.80;99.90;;;;;;2621865;46;20241;31
2024/01/18 10:00:46;;;;;;;44.80;22.43;;;0.90;99.90;;;;;;2603179;54;21122;31
2024/01/18 10:03:22;;;;;;;43.80;21.57;;;0.90;99.90;;;;;;2603015;54;20038;31
2024/01/18 10:05:57;;;;;;;44.20;21.37;;;0.90;99.90;;;;;;2603194;54;20888;31
2024/01/18 10:08:32;;;;;;;46.28;21.77;;;0.90;99.90;;;;;;2603377;54;20837;31
2024/01/18 10:11:08;;;;;;;43.13;20.73;;;0.90;99.90;;;;;;2602955;54;20774;31
2024/01/18 10:13:59;;;;;;;41.65;20.25;;;0.90;99.90;;;;;;2603258;54;20094;31
2024/01/18 10:16:34;;;;;;;45.30;21.57;;;0.90;99.90;;;;;;2603312;54;20030;31
2024/01/18 10:19:14;;;;;;;45.47;22.60;;;0.90;99.90;;;;;;2603267;54;20775;31
2024/01/18 10:21:50;;;;;;;44.60;23.23;;;0.90;99.90;;;;;;2603168;54;20031;31
2024/01/18 10:24:24;;;;;;;42.50;21.73;;;0.90;99.90;;;;;;2602776;54;20038;31
2024/01/18 10:27:06;;;;;;;48.00;22.65;;;0.90;99.90;;;;;;2603086;54;20057;31
2024/01/18 10:29:44;;;;;;;48.95;23.08;;;0.90;99.90;;;;;;2603179;54;20749;31
2024/01/18 10:32:19;;;;;;;49.63;23.20;;;1.00;99.90;;;;;;2603062;54;20887;31
2024/01/18 10:34:53;;;;;;;45.22;22.27;;;1.00;99.90;;;;;;2603258;54;20746;31
2024/01/18 10:37:28;;;;;;;42.97;22.50;;;1.00;99.90;;;;;;2603219;54;20878;31
2024/01/18 10:40:07;;;;;;;49.10;22.37;;;1.00;99.90;;;;;;2603146;54;20880;31
2024/01/18 10:42:42;;;;;;;49.30;23.48;;;1.00;99.90;;;;;;2621773;46;20242;31
2024/01/18 10:45:20;;;;;;;53.38;25.13;;;1.00;99.90;;;;;;2603071;54;20026;31
2024/01/18 10:47:56;;;;;;;51.13;26.83;;;0.90;99.90;;;;;;2603103;54;20026;31
2024/01/18 10:50:31;;;;;;;55.15;27.45;;;0.90;99.90;;;;;;2603168;54;20760;31
2024/01/18 10:53:07;;;;;;;51.70;25.15;;;0.90;99.90;;;;;;2603182;54;20033;31
2024/01/18 10:55:41;;;;;;;57.45;28.45;;;0.90;99.90;;;;;;2621489;46;20022;31
2024/01/18 10:58:19;;;;;;;51.93;26.50;;;0.90;99.90;;;;;;2602727;54;20031;31
2024/01/18 11:00:51;;;;;;;56.50;27.27;;;0.90;99.90;;;;;;2603170;54;20031;31
2024/01/18 11:03:29;;;;;;;55.53;25.63;;;0.90;99.90;;;;;;2621471;46;20978;31
2024/01/18 11:06:09;;;;;;;58.33;26.00;;;0.90;99.90;;;;;;2603102;54;20978;31
2024/01/18 11:08:44;;;;;;;52.15;25.52;;;0.90;99.90;;;;;;2602861;54;20845;31
2024/01/18 11:11:19;;;;;;;57.80;24.30;;;0.90;99.90;;;;;;2603081;54;20027;31
2024/01/18 11:13:54;;;;;;;68.00;29.10;;;1.00;99.90;;;;;;2603275;54;20861;31
2024/01/18 11:16:30;;;;;;;71.22;31.17;;;1.00;99.90;;;;;;2621612;46;20029;31
2024/01/18 11:19:08;;;;;;;73.87;33.30;;;1.00;99.90;;;;;;2602820;54;20046;31
2024/01/18 11:21:43;;;;;;;65.73;29.73;;;1.00;99.90;;;;;;2602988;54;20281;31
2024/01/18 11:24:17;;;;;;;58.78;26.52;;;1.10;99.90;;;;;;2602771;54;20862;31
2024/01/18 11:26:53;;;;;;;52.38;24.70;;;1.10;99.90;;;;;;2602891;54;20121;31
2024/01/18 11:29:27;;;;;;;53.33;24.97;;;1.10;99.90;;;;;;2602885;54;20976;31
2024/01/18 11:32:02;;;;;;;50.73;24.50;;;1.20;99.90;;;;;;2602805;54;21070;31
2024/01/18 11:34:42;;;;;;;56.30;27.50;;;1.20;99.90;;;;;;2602552;54;20268;31
2024/01/18 11:37:18;;;;;;;69.32;32.30;;;1.20;99.90;;;;;;2602870;54;20026;31
2024/01/18 11:40:05;;;;;;;52.42;29.80;;;1.10;99.90;;;;;;2602963;54;20030;31
2024/01/18 11:42:40;;;;;;;;;;;1.10;99.90;;;;;;2602840;54;20039;31
2024/01/18 11:45:19;;;;;;;50.10;23.17;;;1.10;99.90;;;;;;2602979;54;19935;31
2024/01/18 11:47:53;;;;;;;42.72;21.48;;;1.00;99.90;;;;;;2603008;54;20860;31
2024/01/18 11:50:31;;;;;;;45.17;23.30;;;1.00;99.90;;;;;;2621321;46;20037;31
2024/01/18 11:53:05;;;;;;;44.90;21.63;;;1.00;99.90;;;;;;2602912;54;20034;31
2024/01/18 11:55:45;;;;;;;49.38;23.17;;;0.90;99.90;;;;;;2602881;54;20034;31
2024/01/18 11:58:20;;;;;;;49.20;24.00;;;0.90;99.90;;;;;;2602993;54;20863;31
2024/01/18 12:00:58;;;;;;;50.47;24.27;;;0.90;99.90;;;;;;2602772;54;20924;31
2024/01/18 12:03:33;;;;;;;57.85;26.15;;;0.80;99.90;;;;;;2602485;54;20038;31
2024/01/18 12:06:11;;;;;;;55.55;27.85;;;0.90;99.90;;;;;;2602724;54;20073;31
2024/01/18 12:08:47;;;;;;;62.37;28.70;;;0.80;99.90;;;;;;2602754;54;20104;31
2024/01/18 12:11:21;;;;;;;54.10;27.23;;;0.90;99.90;;;;;;2621542;46;20033;31
2024/01/18 12:13:56;;;;;;;55.50;26.00;;;0.90;99.90;;;;;;2602974;54;20032;31
2024/01/18 12:16:31;;;;;;;54.35;24.65;;;0.80;99.90;;;;;;2602799;54;20033;31
2024/01/18 12:19:08;;;;;;;46.87;24.53;;;0.90;99.90;;;;;;2602744;54;20739;31
2024/01/18 12:21:45;;;;;;;49.30;23.80;;;0.90;99.90;;;;;;2602615;54;20872;31
2024/01/18 12:24:20;;;;;;;52.25;24.23;;;0.80;99.90;;;;;;2602681;54;20305;31
2024/01/18 12:26:55;;;;;;;45.22;21.13;;;0.80;99.90;;;;;;2621132;47;20758;31
2024/01/18 12:29:31;;;;;;;45.20;22.48;;;0.90;99.90;;;;;;2621215;47;20057;31
2024/01/18 12:32:08;;;;;;;45.22;22.40;;;0.90;99.90;;;;;;2602909;54;20862;31
2024/01/18 12:34:43;;;;;;;52.30;23.35;;;0.90;99.90;;;;;;2621166;47;20039;31
2024/01/18 12:37:23;;;;;;;47.00;21.80;;;0.90;99.90;;;;;;2620948;47;20882;31
2024/01/18 12:39:57;;;;;;;48.50;23.40;;;0.90;99.90;;;;;;2602736;54;20065;31
2024/01/18 12:42:34;;;;;;;48.17;23.58;;;0.90;99.90;;;;;;2602691;54;20863;31
2024/01/18 12:45:10;;;;;;;46.42;24.10;;;0.90;99.90;;;;;;2621289;47;20029;31
2024/01/18 12:47:44;;;;;;;51.92;25.58;;;0.90;99.90;;;;;;2621634;47;20758;31
2024/01/18 12:50:20;;;;;;;55.53;23.90;;;0.90;99.90;;;;;;2603454;54;20039;31
2024/01/18 12:52:58;;;;;;;52.15;24.20;;;0.90;99.90;;;;;;2603411;54;20030;31
2024/01/18 12:55:36;;;;;;;53.25;26.70;;;0.90;99.90;;;;;;2603425;54;20069;31
2024/01/18 12:58:15;;;;;;;47.05;25.00;;;0.90;99.90;;;;;;2603498;54;20756;31
2024/01/18 13:00:52;;;;;;;49.42;24.83;;;0.90;99.90;;;;;;2603455;54;20803;31
2024/01/18 13:03:28;;;;;;;49.20;23.92;;;1.00;99.90;;;;;;2603370;54;20099;31
2024/01/18 13:06:02;;;;;;;43.55;24.45;;;0.90;99.90;;;;;;2621928;46;20038;31
2024/01/18 13:08:40;;;;;;;41.33;22.07;;;0.90;99.90;;;;;;2603533;54;20022;31
2024/01/18 13:11:14;;;;;;;48.92;24.17;;;0.90;99.90;;;;;;2603270;54;21155;31
2024/01/18 13:13:49;;;;;;;55.92;25.40;;;0.90;99.90;;;;;;2603310;54;20033;31
2024/01/18 13:16:24;;;;;;;51.20;23.55;;;0.80;99.90;;;;;;2621698;46;20082;31
2024/01/18 13:19:03;;;;;;;48.33;23.23;;;0.80;99.90;;;;;;2603537;54;20872;31
2024/01/18 13:21:41;;;;;;;52.65;26.50;;;0.80;99.90;;;;;;2603221;54;20265;31
2024/01/18 13:24:19;;;;;;;54.55;24.83;;;0.70;99.90;;;;;;2603476;54;20836;31
2024/01/18 13:26:55;;;;;;;54.17;25.98;;;0.60;99.90;;;;;;2602996;54;20750;31
2024/01/18 13:29:30;;;;;;;56.05;27.30;;;0.60;99.90;;;;;;2603267;54;20928;31
2024/01/18 13:32:04;;;;;;;46.15;25.15;;;0.50;99.90;;;;;;2621613;46;20031;31